sensor_id;sensor_type;location;lat;lon;timestamp;P1;durP1;ratioP1;P2;durP2;ratioP2
28836;SDS011;50669;50.982;11.022;2022-12-16T00:02:03;49.42;;;19.33;;
28836;SDS011;50669;50.982;11.022;2022-12-16T00:04:36;39.97;;;20.90;;
28836;SDS011;50669;50.982;11.022;2022-12-16T00:07:02;45.05;;;20.95;;
28836;SDS011;50669;50.982;11.022;2022-12-16T00:09:32;42.22;;;19.42;;
28836;SDS011;50669;50.982;11.022;2022-12-16T00:11:58;49.42;;;19.73;;
28836;SDS011;50669;50.982;11.022;2022-12-16T00:14:24;43.25;;;19.83;;
28836;SDS011;50669;50.982;11.022;2022-12-16T00:16:51;43.33;;;19.33;;
28836;SDS011;50669;50.982;11.022;2022-12-16T00:19:17;39.80;;;18.92;;
28836;SDS011;50669;50.982;11.022;2022-12-16T00:21:42;43.85;;;19.88;;
28836;SDS011;50669;50.982;11.022;2022-12-16T00:24:08;35.80;;;18.25;;
28836;SDS011;50669;50.982;11.022;2022-12-16T00:26:34;43.45;;;19.52;;
28836;SDS011;50669;50.982;11.022;2022-12-16T00:29:01;46.67;;;19.33;;
28836;SDS011;50669;50.982;11.022;2022-12-16T00:31:29;49.45;;;19.30;;
28836;SDS011;50669;50.982;11.022;2022-12-16T00:33:55;36.25;;;17.50;;
28836;SDS011;50669;50.982;11.022;2022-12-16T00:36:24;36.45;;;17.58;;
28836;SDS011;50669;50.982;11.022;2022-12-16T00:38:52;36.60;;;17.58;;
28836;SDS011;50669;50.982;11.022;2022-12-16T00:41:20;40.35;;;18.05;;
28836;SDS011;50669;50.982;11.022;2022-12-16T00:43:46;38.95;;;17.58;;
28836;SDS011;50669;50.982;11.022;2022-12-16T00:46:12;38.88;;;18.55;;
28836;SDS011;50669;50.982;11.022;2022-12-16T00:48:41;35.63;;;17.33;;
28836;SDS011;50669;50.982;11.022;2022-12-16T00:51:06;36.45;;;16.05;;
28836;SDS011;50669;50.982;11.022;2022-12-16T00:53:32;33.75;;;17.45;;
28836;SDS011;50669;50.982;11.022;2022-12-16T00:58:42;41.05;;;18.20;;
28836;SDS011;50669;50.982;11.022;2022-12-16T01:01:10;39.72;;;17.98;;
28836;SDS011;50669;50.982;11.022;2022-12-16T01:03:36;42.33;;;18.40;;
28836;SDS011;50669;50.982;11.022;2022-12-16T01:06:12;36.60;;;16.52;;
28836;SDS011;50669;50.982;11.022;2022-12-16T01:08:40;36.72;;;16.60;;
28836;SDS011;50669;50.982;11.022;2022-12-16T01:11:12;37.47;;;17.40;;
28836;SDS011;50669;50.982;11.022;2022-12-16T01:13:40;43.13;;;17.42;;
28836;SDS011;50669;50.982;11.022;2022-12-16T01:16:08;38.22;;;18.02;;
28836;SDS011;50669;50.982;11.022;2022-12-16T01:18:34;37.42;;;16.80;;
28836;SDS011;50669;50.982;11.022;2022-12-16T01:21:03;41.10;;;17.23;;
28836;SDS011;50669;50.982;11.022;2022-12-16T01:23:32;37.25;;;17.38;;
28836;SDS011;50669;50.982;11.022;2022-12-16T01:25:59;39.13;;;18.50;;
28836;SDS011;50669;50.982;11.022;2022-12-16T01:28:27;34.25;;;16.55;;
28836;SDS011;50669;50.982;11.022;2022-12-16T01:30:57;37.85;;;17.38;;
28836;SDS011;50669;50.982;11.022;2022-12-16T01:33:29;36.60;;;17.52;;
28836;SDS011;50669;50.982;11.022;2022-12-16T01:36:03;40.80;;;18.42;;
28836;SDS011;50669;50.982;11.022;2022-12-16T01:38:30;39.55;;;17.55;;
28836;SDS011;50669;50.982;11.022;2022-12-16T01:40:58;37.88;;;18.67;;
28836;SDS011;50669;50.982;11.022;2022-12-16T01:43:26;38.25;;;17.80;;
28836;SDS011;50669;50.982;11.022;2022-12-16T01:45:59;42.67;;;18.67;;
28836;SDS011;50669;50.982;11.022;2022-12-16T01:48:34;44.08;;;19.40;;
28836;SDS011;50669;50.982;11.022;2022-12-16T01:51:25;40.17;;;19.45;;
28836;SDS011;50669;50.982;11.022;2022-12-16T01:56:59;40.08;;;17.25;;
28836;SDS011;50669;50.982;11.022;2022-12-16T01:59:33;39.80;;;18.05;;
28836;SDS011;50669;50.982;11.022;2022-12-16T02:02:02;33.50;;;17.75;;
28836;SDS011;50669;50.982;11.022;2022-12-16T02:04:29;38.33;;;17.55;;
28836;SDS011;50669;50.982;11.022;2022-12-16T02:06:59;42.25;;;18.23;;
28836;SDS011;50669;50.982;11.022;2022-12-16T02:09:27;38.80;;;17.65;;
28836;SDS011;50669;50.982;11.022;2022-12-16T02:12:09;38.60;;;18.48;;
28836;SDS011;50669;50.982;11.022;2022-12-16T02:20:17;34.08;;;16.67;;
28836;SDS011;50669;50.982;11.022;2022-12-16T02:23:18;37.05;;;17.50;;
28836;SDS011;50669;50.982;11.022;2022-12-16T02:31:23;40.97;;;17.05;;
28836;SDS011;50669;50.982;11.022;2022-12-16T02:39:37;38.85;;;17.17;;
28836;SDS011;50669;50.982;11.022;2022-12-16T02:42:25;44.47;;;18.75;;
28836;SDS011;50669;50.982;11.022;2022-12-16T02:45:10;44.67;;;17.73;;
28836;SDS011;50669;50.982;11.022;2022-12-16T02:47:39;45.20;;;18.40;;
28836;SDS011;50669;50.982;11.022;2022-12-16T02:50:08;43.55;;;19.38;;
28836;SDS011;50669;50.982;11.022;2022-12-16T02:52:48;44.55;;;19.00;;
28836;SDS011;50669;50.982;11.022;2022-12-16T02:55:16;43.65;;;19.42;;
28836;SDS011;50669;50.982;11.022;2022-12-16T02:57:51;34.90;;;17.67;;
28836;SDS011;50669;50.982;11.022;2022-12-16T03:03:46;50.60;;;21.77;;
28836;SDS011;50669;50.982;11.022;2022-12-16T03:06:18;51.60;;;21.65;;
28836;SDS011;50669;50.982;11.022;2022-12-16T03:08:47;52.47;;;21.55;;
28836;SDS011;50669;50.982;11.022;2022-12-16T03:11:19;56.88;;;22.50;;
28836;SDS011;50669;50.982;11.022;2022-12-16T03:13:45;55.67;;;22.75;;
28836;SDS011;50669;50.982;11.022;2022-12-16T03:16:15;51.00;;;20.25;;
28836;SDS011;50669;50.982;11.022;2022-12-16T03:18:44;54.95;;;20.80;;
28836;SDS011;50669;50.982;11.022;2022-12-16T03:21:14;48.67;;;20.48;;
28836;SDS011;50669;50.982;11.022;2022-12-16T03:24:04;66.78;;;23.38;;
28836;SDS011;50669;50.982;11.022;2022-12-16T03:26:33;61.60;;;22.55;;
28836;SDS011;50669;50.982;11.022;2022-12-16T03:32:21;66.82;;;24.70;;
28836;SDS011;50669;50.982;11.022;2022-12-16T03:37:37;73.57;;;25.95;;
28836;SDS011;50669;50.982;11.022;2022-12-16T03:40:04;64.85;;;26.77;;
28836;SDS011;50669;50.982;11.022;2022-12-16T03:42:35;76.03;;;26.27;;
28836;SDS011;50669;50.982;11.022;2022-12-16T03:45:03;66.07;;;25.20;;
28836;SDS011;50669;50.982;11.022;2022-12-16T03:47:33;63.65;;;26.17;;
28836;SDS011;50669;50.982;11.022;2022-12-16T03:49:59;69.68;;;27.30;;
28836;SDS011;50669;50.982;11.022;2022-12-16T03:52:27;77.45;;;27.80;;
28836;SDS011;50669;50.982;11.022;2022-12-16T03:54:55;69.25;;;26.75;;
28836;SDS011;50669;50.982;11.022;2022-12-16T03:57:23;71.50;;;26.80;;
28836;SDS011;50669;50.982;11.022;2022-12-16T03:59:51;63.05;;;26.85;;
28836;SDS011;50669;50.982;11.022;2022-12-16T04:02:17;65.75;;;26.30;;
28836;SDS011;50669;50.982;11.022;2022-12-16T04:04:42;67.70;;;26.20;;
28836;SDS011;50669;50.982;11.022;2022-12-16T04:07:08;66.65;;;28.13;;
28836;SDS011;50669;50.982;11.022;2022-12-16T04:09:49;74.97;;;27.30;;
28836;SDS011;50669;50.982;11.022;2022-12-16T04:12:16;67.63;;;26.95;;
28836;SDS011;50669;50.982;11.022;2022-12-16T04:15:03;73.43;;;27.48;;
28836;SDS011;50669;50.982;11.022;2022-12-16T04:17:48;70.68;;;27.15;;
28836;SDS011;50669;50.982;11.022;2022-12-16T04:20:36;71.07;;;28.70;;
28836;SDS011;50669;50.982;11.022;2022-12-16T04:23:23;63.08;;;25.67;;
28836;SDS011;50669;50.982;11.022;2022-12-16T04:26:10;61.83;;;25.27;;
28836;SDS011;50669;50.982;11.022;2022-12-16T04:28:36;61.63;;;25.65;;
28836;SDS011;50669;50.982;11.022;2022-12-16T04:31:03;64.30;;;26.08;;
28836;SDS011;50669;50.982;11.022;2022-12-16T04:33:29;60.45;;;25.27;;
28836;SDS011;50669;50.982;11.022;2022-12-16T04:36:14;64.22;;;26.17;;
28836;SDS011;50669;50.982;11.022;2022-12-16T04:38:58;66.25;;;26.17;;
28836;SDS011;50669;50.982;11.022;2022-12-16T04:41:44;60.45;;;25.45;;
28836;SDS011;50669;50.982;11.022;2022-12-16T04:44:28;68.28;;;26.38;;
28836;SDS011;50669;50.982;11.022;2022-12-16T04:47:12;67.07;;;26.33;;
28836;SDS011;50669;50.982;11.022;2022-12-16T04:49:57;66.53;;;25.45;;
28836;SDS011;50669;50.982;11.022;2022-12-16T04:52:40;67.63;;;27.33;;
28836;SDS011;50669;50.982;11.022;2022-12-16T04:55:25;64.18;;;26.75;;
28836;SDS011;50669;50.982;11.022;2022-12-16T04:58:11;63.42;;;25.35;;
28836;SDS011;50669;50.982;11.022;2022-12-16T05:00:55;56.55;;;25.92;;
28836;SDS011;50669;50.982;11.022;2022-12-16T05:03:39;64.05;;;25.27;;
28836;SDS011;50669;50.982;11.022;2022-12-16T05:06:23;65.30;;;23.67;;
28836;SDS011;50669;50.982;11.022;2022-12-16T05:09:07;69.93;;;25.52;;
28836;SDS011;50669;50.982;11.022;2022-12-16T05:11:51;56.85;;;22.90;;
28836;SDS011;50669;50.982;11.022;2022-12-16T05:14:36;59.90;;;24.63;;
28836;SDS011;50669;50.982;11.022;2022-12-16T05:17:20;59.90;;;26.30;;
28836;SDS011;50669;50.982;11.022;2022-12-16T05:20:04;67.72;;;26.05;;
28836;SDS011;50669;50.982;11.022;2022-12-16T05:22:49;63.72;;;26.92;;
28836;SDS011;50669;50.982;11.022;2022-12-16T05:25:34;68.57;;;23.83;;
28836;SDS011;50669;50.982;11.022;2022-12-16T05:28:20;56.85;;;24.23;;
28836;SDS011;50669;50.982;11.022;2022-12-16T05:31:04;60.25;;;24.98;;
28836;SDS011;50669;50.982;11.022;2022-12-16T05:33:53;67.38;;;25.13;;
28836;SDS011;50669;50.982;11.022;2022-12-16T05:36:40;66.32;;;24.65;;
28836;SDS011;50669;50.982;11.022;2022-12-16T05:39:24;73.63;;;25.15;;
28836;SDS011;50669;50.982;11.022;2022-12-16T05:42:08;64.97;;;25.30;;
28836;SDS011;50669;50.982;11.022;2022-12-16T05:44:52;69.75;;;23.52;;
28836;SDS011;50669;50.982;11.022;2022-12-16T05:47:36;63.58;;;23.83;;
28836;SDS011;50669;50.982;11.022;2022-12-16T05:50:24;70.10;;;26.63;;
28836;SDS011;50669;50.982;11.022;2022-12-16T05:53:08;63.40;;;23.90;;
28836;SDS011;50669;50.982;11.022;2022-12-16T05:55:52;63.85;;;25.88;;
28836;SDS011;50669;50.982;11.022;2022-12-16T05:58:36;64.22;;;24.13;;
28836;SDS011;50669;50.982;11.022;2022-12-16T06:01:20;68.85;;;26.48;;
28836;SDS011;50669;50.982;11.022;2022-12-16T06:04:05;64.78;;;24.42;;
28836;SDS011;50669;50.982;11.022;2022-12-16T06:06:49;57.90;;;23.45;;
28836;SDS011;50669;50.982;11.022;2022-12-16T06:09:33;66.93;;;24.75;;
28836;SDS011;50669;50.982;11.022;2022-12-16T06:12:20;61.95;;;24.02;;
28836;SDS011;50669;50.982;11.022;2022-12-16T06:15:04;64.53;;;24.23;;
28836;SDS011;50669;50.982;11.022;2022-12-16T06:17:51;71.70;;;24.55;;
28836;SDS011;50669;50.982;11.022;2022-12-16T06:20:35;58.70;;;23.15;;
28836;SDS011;50669;50.982;11.022;2022-12-16T06:23:22;72.05;;;24.83;;
28836;SDS011;50669;50.982;11.022;2022-12-16T06:26:06;62.58;;;25.77;;
28836;SDS011;50669;50.982;11.022;2022-12-16T06:28:50;59.80;;;24.13;;
28836;SDS011;50669;50.982;11.022;2022-12-16T06:31:34;60.45;;;24.50;;
28836;SDS011;50669;50.982;11.022;2022-12-16T06:34:21;59.10;;;22.75;;
28836;SDS011;50669;50.982;11.022;2022-12-16T06:37:07;68.25;;;23.65;;
28836;SDS011;50669;50.982;11.022;2022-12-16T06:39:51;52.60;;;22.60;;
28836;SDS011;50669;50.982;11.022;2022-12-16T06:42:38;62.28;;;23.23;;
28836;SDS011;50669;50.982;11.022;2022-12-16T06:45:23;58.83;;;22.85;;
28836;SDS011;50669;50.982;11.022;2022-12-16T06:48:07;58.17;;;22.92;;
28836;SDS011;50669;50.982;11.022;2022-12-16T06:50:54;57.88;;;22.35;;
28836;SDS011;50669;50.982;11.022;2022-12-16T06:53:38;58.08;;;23.80;;
28836;SDS011;50669;50.982;11.022;2022-12-16T06:56:22;70.80;;;24.77;;
28836;SDS011;50669;50.982;11.022;2022-12-16T06:59:06;67.65;;;23.98;;
28836;SDS011;50669;50.982;11.022;2022-12-16T07:01:50;58.33;;;23.63;;
28836;SDS011;50669;50.982;11.022;2022-12-16T07:04:34;59.33;;;23.13;;
28836;SDS011;50669;50.982;11.022;2022-12-16T07:07:20;70.13;;;24.98;;
28836;SDS011;50669;50.982;11.022;2022-12-16T07:10:09;72.82;;;26.00;;
28836;SDS011;50669;50.982;11.022;2022-12-16T07:12:58;61.53;;;24.45;;
28836;SDS011;50669;50.982;11.022;2022-12-16T07:15:43;63.42;;;24.58;;
28836;SDS011;50669;50.982;11.022;2022-12-16T07:18:28;64.55;;;23.33;;
28836;SDS011;50669;50.982;11.022;2022-12-16T07:21:15;68.22;;;24.52;;
28836;SDS011;50669;50.982;11.022;2022-12-16T07:23:59;59.53;;;23.83;;
28836;SDS011;50669;50.982;11.022;2022-12-16T07:26:46;55.97;;;23.27;;
28836;SDS011;50669;50.982;11.022;2022-12-16T07:29:30;72.32;;;25.63;;
28836;SDS011;50669;50.982;11.022;2022-12-16T07:32:14;64.78;;;26.25;;
28836;SDS011;50669;50.982;11.022;2022-12-16T07:34:58;59.05;;;23.85;;
28836;SDS011;50669;50.982;11.022;2022-12-16T07:37:42;61.55;;;22.90;;
28836;SDS011;50669;50.982;11.022;2022-12-16T07:40:29;59.47;;;23.67;;
28836;SDS011;50669;50.982;11.022;2022-12-16T07:43:13;59.50;;;23.83;;
28836;SDS011;50669;50.982;11.022;2022-12-16T07:45:57;68.50;;;24.05;;
28836;SDS011;50669;50.982;11.022;2022-12-16T07:48:41;70.68;;;24.58;;
28836;SDS011;50669;50.982;11.022;2022-12-16T07:51:25;62.80;;;24.50;;
28836;SDS011;50669;50.982;11.022;2022-12-16T07:54:09;63.13;;;23.38;;
28836;SDS011;50669;50.982;11.022;2022-12-16T07:56:53;69.10;;;24.33;;
28836;SDS011;50669;50.982;11.022;2022-12-16T07:59:37;72.43;;;24.52;;
28836;SDS011;50669;50.982;11.022;2022-12-16T08:02:35;81.13;;;25.30;;
28836;SDS011;50669;50.982;11.022;2022-12-16T08:05:19;76.85;;;24.02;;
28836;SDS011;50669;50.982;11.022;2022-12-16T08:08:03;68.25;;;23.20;;
28836;SDS011;50669;50.982;11.022;2022-12-16T08:10:50;64.53;;;24.15;;
28836;SDS011;50669;50.982;11.022;2022-12-16T08:13:34;64.03;;;23.83;;
28836;SDS011;50669;50.982;11.022;2022-12-16T08:16:20;76.13;;;24.02;;
28836;SDS011;50669;50.982;11.022;2022-12-16T08:19:04;64.93;;;23.17;;
28836;SDS011;50669;50.982;11.022;2022-12-16T08:21:48;69.22;;;23.52;;
28836;SDS011;50669;50.982;11.022;2022-12-16T08:24:32;66.57;;;24.52;;
28836;SDS011;50669;50.982;11.022;2022-12-16T08:27:16;59.45;;;23.13;;
28836;SDS011;50669;50.982;11.022;2022-12-16T08:30:04;62.95;;;24.75;;
28836;SDS011;50669;50.982;11.022;2022-12-16T08:32:49;59.75;;;22.92;;
28836;SDS011;50669;50.982;11.022;2022-12-16T08:35:35;73.55;;;24.80;;
28836;SDS011;50669;50.982;11.022;2022-12-16T08:38:20;65.00;;;22.38;;
28836;SDS011;50669;50.982;11.022;2022-12-16T08:41:04;74.75;;;24.70;;
28836;SDS011;50669;50.982;11.022;2022-12-16T08:43:48;65.22;;;22.88;;
28836;SDS011;50669;50.982;11.022;2022-12-16T08:46:32;69.68;;;23.77;;
28836;SDS011;50669;50.982;11.022;2022-12-16T08:49:16;66.57;;;22.80;;
28836;SDS011;50669;50.982;11.022;2022-12-16T08:52:02;61.80;;;21.42;;
28836;SDS011;50669;50.982;11.022;2022-12-16T08:54:49;66.57;;;23.55;;
28836;SDS011;50669;50.982;11.022;2022-12-16T08:57:33;70.63;;;24.25;;
28836;SDS011;50669;50.982;11.022;2022-12-16T09:00:19;69.68;;;25.70;;
28836;SDS011;50669;50.982;11.022;2022-12-16T09:03:03;69.57;;;25.08;;
28836;SDS011;50669;50.982;11.022;2022-12-16T09:05:47;64.68;;;24.20;;
28836;SDS011;50669;50.982;11.022;2022-12-16T09:08:31;67.88;;;25.48;;
28836;SDS011;50669;50.982;11.022;2022-12-16T09:11:15;60.80;;;23.08;;
28836;SDS011;50669;50.982;11.022;2022-12-16T09:13:59;68.97;;;24.80;;
28836;SDS011;50669;50.982;11.022;2022-12-16T09:16:46;62.95;;;26.63;;
28836;SDS011;50669;50.982;11.022;2022-12-16T09:19:33;71.88;;;27.27;;
28836;SDS011;50669;50.982;11.022;2022-12-16T09:22:17;64.85;;;25.38;;
28836;SDS011;50669;50.982;11.022;2022-12-16T09:25:18;65.53;;;24.38;;
28836;SDS011;50669;50.982;11.022;2022-12-16T09:28:02;62.92;;;23.92;;
28836;SDS011;50669;50.982;11.022;2022-12-16T09:30:46;66.38;;;27.92;;
28836;SDS011;50669;50.982;11.022;2022-12-16T09:33:33;66.03;;;25.63;;
28836;SDS011;50669;50.982;11.022;2022-12-16T09:36:17;76.43;;;28.05;;
28836;SDS011;50669;50.982;11.022;2022-12-16T09:39:03;69.97;;;26.90;;
28836;SDS011;50669;50.982;11.022;2022-12-16T09:41:54;82.93;;;29.33;;
28836;SDS011;50669;50.982;11.022;2022-12-16T09:51:18;61.67;;;26.58;;
28836;SDS011;50669;50.982;11.022;2022-12-16T09:54:03;66.65;;;24.98;;
28836;SDS011;50669;50.982;11.022;2022-12-16T09:56:50;67.45;;;25.77;;
28836;SDS011;50669;50.982;11.022;2022-12-16T09:59:37;68.38;;;25.83;;
28836;SDS011;50669;50.982;11.022;2022-12-16T10:02:24;66.10;;;25.70;;
28836;SDS011;50669;50.982;11.022;2022-12-16T10:05:14;71.60;;;26.55;;
28836;SDS011;50669;50.982;11.022;2022-12-16T10:11:16;68.20;;;25.30;;
28836;SDS011;50669;50.982;11.022;2022-12-16T10:14:13;77.80;;;26.02;;
28836;SDS011;50669;50.982;11.022;2022-12-16T10:20:04;70.18;;;26.38;;
28836;SDS011;50669;50.982;11.022;2022-12-16T10:23:20;72.53;;;25.92;;
28836;SDS011;50669;50.982;11.022;2022-12-16T10:29:20;74.65;;;26.67;;
28836;SDS011;50669;50.982;11.022;2022-12-16T10:32:15;63.17;;;25.45;;
28836;SDS011;50669;50.982;11.022;2022-12-16T10:35:16;67.05;;;24.45;;
28836;SDS011;50669;50.982;11.022;2022-12-16T10:38:06;69.22;;;25.30;;
28836;SDS011;50669;50.982;11.022;2022-12-16T10:41:17;69.00;;;25.42;;
28836;SDS011;50669;50.982;11.022;2022-12-16T10:44:04;68.35;;;24.85;;
28836;SDS011;50669;50.982;11.022;2022-12-16T10:46:55;68.22;;;25.42;;
28836;SDS011;50669;50.982;11.022;2022-12-16T10:49:39;68.97;;;25.90;;
28836;SDS011;50669;50.982;11.022;2022-12-16T10:52:23;61.20;;;23.95;;
28836;SDS011;50669;50.982;11.022;2022-12-16T11:04:50;67.63;;;27.23;;
28836;SDS011;50669;50.982;11.022;2022-12-16T11:16:27;80.65;;;28.52;;
28836;SDS011;50669;50.982;11.022;2022-12-16T11:22:16;85.88;;;29.17;;
28836;SDS011;50669;50.982;11.022;2022-12-16T11:28:02;79.50;;;28.90;;
28836;SDS011;50669;50.982;11.022;2022-12-16T11:30:49;70.22;;;26.70;;
28836;SDS011;50669;50.982;11.022;2022-12-16T11:33:36;77.13;;;26.88;;
28836;SDS011;50669;50.982;11.022;2022-12-16T11:36:22;78.63;;;28.23;;
28836;SDS011;50669;50.982;11.022;2022-12-16T11:39:12;73.50;;;26.20;;
28836;SDS011;50669;50.982;11.022;2022-12-16T11:41:58;75.25;;;27.17;;
28836;SDS011;50669;50.982;11.022;2022-12-16T11:44:48;70.80;;;26.58;;
28836;SDS011;50669;50.982;11.022;2022-12-16T11:50:47;68.97;;;26.42;;
28836;SDS011;50669;50.982;11.022;2022-12-16T11:56:23;76.57;;;28.58;;
28836;SDS011;50669;50.982;11.022;2022-12-16T11:59:21;69.03;;;29.50;;
28836;SDS011;50669;50.982;11.022;2022-12-16T12:02:14;75.53;;;29.02;;
28836;SDS011;50669;50.982;11.022;2022-12-16T12:05:09;66.80;;;26.92;;
28836;SDS011;50669;50.982;11.022;2022-12-16T12:10:50;78.30;;;30.52;;
28836;SDS011;50669;50.982;11.022;2022-12-16T12:22:37;74.13;;;28.77;;
28836;SDS011;50669;50.982;11.022;2022-12-16T12:25:24;72.38;;;29.05;;
28836;SDS011;50669;50.982;11.022;2022-12-16T12:28:15;70.70;;;27.95;;
28836;SDS011;50669;50.982;11.022;2022-12-16T12:37:14;77.15;;;30.88;;
28836;SDS011;50669;50.982;11.022;2022-12-16T12:40:03;74.65;;;28.75;;
28836;SDS011;50669;50.982;11.022;2022-12-16T12:46:38;72.85;;;27.85;;
28836;SDS011;50669;50.982;11.022;2022-12-16T12:59:22;72.40;;;28.92;;
28836;SDS011;50669;50.982;11.022;2022-12-16T13:02:14;72.25;;;28.65;;
28836;SDS011;50669;50.982;11.022;2022-12-16T13:05:03;76.57;;;29.38;;
28836;SDS011;50669;50.982;11.022;2022-12-16T13:07:48;77.47;;;29.45;;
28836;SDS011;50669;50.982;11.022;2022-12-16T13:10:36;75.05;;;30.83;;
28836;SDS011;50669;50.982;11.022;2022-12-16T13:16:09;77.90;;;30.65;;
28836;SDS011;50669;50.982;11.022;2022-12-16T13:22:27;77.43;;;29.35;;
28836;SDS011;50669;50.982;11.022;2022-12-16T13:29:01;79.47;;;29.80;;
28836;SDS011;50669;50.982;11.022;2022-12-16T13:31:59;76.85;;;28.52;;
28836;SDS011;50669;50.982;11.022;2022-12-16T13:34:48;78.35;;;29.02;;
28836;SDS011;50669;50.982;11.022;2022-12-16T13:38:17;72.60;;;28.85;;
28836;SDS011;50669;50.982;11.022;2022-12-16T13:41:04;71.80;;;27.75;;
28836;SDS011;50669;50.982;11.022;2022-12-16T13:44:09;87.38;;;29.80;;
28836;SDS011;50669;50.982;11.022;2022-12-16T13:46:54;80.97;;;29.50;;
28836;SDS011;50669;50.982;11.022;2022-12-16T14:01:37;76.93;;;29.13;;
28836;SDS011;50669;50.982;11.022;2022-12-16T14:04:32;76.80;;;28.83;;
28836;SDS011;50669;50.982;11.022;2022-12-16T14:07:25;63.20;;;22.97;;
28836;SDS011;50669;50.982;11.022;2022-12-16T14:10:23;82.28;;;29.63;;
28836;SDS011;50669;50.982;11.022;2022-12-16T14:13:29;83.70;;;28.95;;
28836;SDS011;50669;50.982;11.022;2022-12-16T14:25:55;79.15;;;28.33;;
28836;SDS011;50669;50.982;11.022;2022-12-16T14:28:41;71.13;;;28.08;;
28836;SDS011;50669;50.982;11.022;2022-12-16T14:31:29;74.63;;;27.23;;
28836;SDS011;50669;50.982;11.022;2022-12-16T14:34:26;72.75;;;27.80;;
28836;SDS011;50669;50.982;11.022;2022-12-16T14:43:10;81.68;;;28.65;;
28836;SDS011;50669;50.982;11.022;2022-12-16T14:45:59;83.07;;;28.55;;
28836;SDS011;50669;50.982;11.022;2022-12-16T14:48:47;74.45;;;27.08;;
28836;SDS011;50669;50.982;11.022;2022-12-16T14:51:33;73.97;;;27.90;;
28836;SDS011;50669;50.982;11.022;2022-12-16T15:02:58;69.93;;;25.27;;
28836;SDS011;50669;50.982;11.022;2022-12-16T15:06:09;81.28;;;26.73;;
28836;SDS011;50669;50.982;11.022;2022-12-16T15:09:00;86.80;;;28.25;;
28836;SDS011;50669;50.982;11.022;2022-12-16T15:11:47;81.10;;;28.52;;
28836;SDS011;50669;50.982;11.022;2022-12-16T15:14:37;84.30;;;29.75;;
28836;SDS011;50669;50.982;11.022;2022-12-16T15:17:24;92.25;;;30.58;;
28836;SDS011;50669;50.982;11.022;2022-12-16T15:20:17;78.72;;;28.50;;
28836;SDS011;50669;50.982;11.022;2022-12-16T15:23:02;79.47;;;28.30;;
28836;SDS011;50669;50.982;11.022;2022-12-16T15:25:53;76.88;;;27.35;;
28836;SDS011;50669;50.982;11.022;2022-12-16T15:28:41;93.60;;;29.13;;
28836;SDS011;50669;50.982;11.022;2022-12-16T15:31:30;87.93;;;30.88;;
28836;SDS011;50669;50.982;11.022;2022-12-16T15:37:02;81.25;;;28.13;;
28836;SDS011;50669;50.982;11.022;2022-12-16T15:39:46;80.55;;;29.25;;
28836;SDS011;50669;50.982;11.022;2022-12-16T15:42:30;79.72;;;29.23;;
28836;SDS011;50669;50.982;11.022;2022-12-16T15:45:23;89.10;;;29.63;;
28836;SDS011;50669;50.982;11.022;2022-12-16T15:48:22;82.72;;;27.75;;
28836;SDS011;50669;50.982;11.022;2022-12-16T15:51:29;82.65;;;30.75;;
28836;SDS011;50669;50.982;11.022;2022-12-16T15:54:19;96.10;;;30.85;;
28836;SDS011;50669;50.982;11.022;2022-12-16T15:57:23;92.20;;;29.05;;
28836;SDS011;50669;50.982;11.022;2022-12-16T16:03:27;81.82;;;27.25;;
28836;SDS011;50669;50.982;11.022;2022-12-16T16:06:16;58.55;;;20.80;;
28836;SDS011;50669;50.982;11.022;2022-12-16T16:09:09;80.75;;;27.88;;
28836;SDS011;50669;50.982;11.022;2022-12-16T16:14:48;82.00;;;24.52;;
28836;SDS011;50669;50.982;11.022;2022-12-16T16:17:32;88.15;;;25.83;;
28836;SDS011;50669;50.982;11.022;2022-12-16T16:20:17;91.30;;;26.02;;
28836;SDS011;50669;50.982;11.022;2022-12-16T16:23:01;92.75;;;28.98;;
28836;SDS011;50669;50.982;11.022;2022-12-16T16:25:46;83.00;;;27.85;;
28836;SDS011;50669;50.982;11.022;2022-12-16T16:28:31;89.82;;;29.98;;
28836;SDS011;50669;50.982;11.022;2022-12-16T16:31:16;82.82;;;27.27;;
28836;SDS011;50669;50.982;11.022;2022-12-16T16:34:00;76.63;;;27.10;;
28836;SDS011;50669;50.982;11.022;2022-12-16T16:36:47;89.60;;;27.92;;
28836;SDS011;50669;50.982;11.022;2022-12-16T16:39:35;87.45;;;27.25;;
28836;SDS011;50669;50.982;11.022;2022-12-16T16:42:20;82.90;;;28.70;;
28836;SDS011;50669;50.982;11.022;2022-12-16T16:45:04;90.10;;;27.73;;
28836;SDS011;50669;50.982;11.022;2022-12-16T16:47:48;81.82;;;28.50;;
28836;SDS011;50669;50.982;11.022;2022-12-16T16:50:32;84.15;;;27.75;;
28836;SDS011;50669;50.982;11.022;2022-12-16T16:53:16;91.22;;;28.95;;
28836;SDS011;50669;50.982;11.022;2022-12-16T16:56:06;78.32;;;28.00;;
28836;SDS011;50669;50.982;11.022;2022-12-16T16:58:53;83.07;;;27.25;;
28836;SDS011;50669;50.982;11.022;2022-12-16T17:01:37;86.88;;;27.25;;
28836;SDS011;50669;50.982;11.022;2022-12-16T17:04:21;85.63;;;26.83;;
28836;SDS011;50669;50.982;11.022;2022-12-16T17:07:05;91.20;;;27.30;;
28836;SDS011;50669;50.982;11.022;2022-12-16T17:09:49;80.88;;;27.95;;
28836;SDS011;50669;50.982;11.022;2022-12-16T17:12:36;84.13;;;27.27;;
28836;SDS011;50669;50.982;11.022;2022-12-16T17:15:22;85.53;;;25.38;;
28836;SDS011;50669;50.982;11.022;2022-12-16T17:18:14;76.70;;;24.58;;
28836;SDS011;50669;50.982;11.022;2022-12-16T17:20:59;77.35;;;24.67;;
28836;SDS011;50669;50.982;11.022;2022-12-16T17:23:43;93.65;;;26.95;;
28836;SDS011;50669;50.982;11.022;2022-12-16T17:26:28;71.47;;;24.80;;
28836;SDS011;50669;50.982;11.022;2022-12-16T17:29:22;83.40;;;25.15;;
28836;SDS011;50669;50.982;11.022;2022-12-16T17:32:07;80.50;;;26.38;;
28836;SDS011;50669;50.982;11.022;2022-12-16T17:34:52;86.18;;;27.67;;
28836;SDS011;50669;50.982;11.022;2022-12-16T17:37:36;90.93;;;27.38;;
28836;SDS011;50669;50.982;11.022;2022-12-16T17:40:20;93.40;;;28.67;;
28836;SDS011;50669;50.982;11.022;2022-12-16T17:43:05;84.80;;;28.33;;
28836;SDS011;50669;50.982;11.022;2022-12-16T17:45:56;90.57;;;26.15;;
28836;SDS011;50669;50.982;11.022;2022-12-16T17:48:41;101.15;;;28.50;;
28836;SDS011;50669;50.982;11.022;2022-12-16T17:51:26;86.63;;;26.73;;
28836;SDS011;50669;50.982;11.022;2022-12-16T17:54:13;81.78;;;26.45;;
28836;SDS011;50669;50.982;11.022;2022-12-16T17:56:57;89.70;;;27.05;;
28836;SDS011;50669;50.982;11.022;2022-12-16T17:59:41;81.18;;;26.35;;
28836;SDS011;50669;50.982;11.022;2022-12-16T18:02:25;69.85;;;23.38;;
28836;SDS011;50669;50.982;11.022;2022-12-16T18:05:09;76.30;;;25.67;;
28836;SDS011;50669;50.982;11.022;2022-12-16T18:07:53;84.78;;;26.15;;
28836;SDS011;50669;50.982;11.022;2022-12-16T18:10:38;82.10;;;27.10;;
28836;SDS011;50669;50.982;11.022;2022-12-16T18:13:22;77.30;;;24.08;;
28836;SDS011;50669;50.982;11.022;2022-12-16T18:16:06;70.45;;;22.83;;
28836;SDS011;50669;50.982;11.022;2022-12-16T18:18:52;67.95;;;22.23;;
28836;SDS011;50669;50.982;11.022;2022-12-16T18:21:37;70.85;;;24.42;;
28836;SDS011;50669;50.982;11.022;2022-12-16T18:24:21;71.57;;;24.88;;